San Marcos, California
Current Conditions -  °F | °C
As of 11:53 AM on Thursday 20 Nov 2014 (Local Time) from KCRQ Reporting Station
Clear Clear  
Wind Chill: 68°   Ceiling: Unl
Heat Index: 68°   Visibility: 10mi
Dew Point: 53°   Wind: 5mph
Humidity: 59%   Direction: NA
Pressure: 30.06"   Gusts: NA
Location:  33.14°N, 117.15°W
Report Text: KCRQ 201953Z AUTO VRB04KT 10SM CLR 20/12 A3006 RMK AO2 SLP177 T02000117 TSNO
Loading
Personal Weather Stations






























Interactive Weather Map New forecast layout! Learn more

10-Day Weather Forecast

Advertisements
Track Severe Weather on mobile